sensor_id;sensor_type;location;lat;lon;timestamp;temperature;humidity
17236;DHT22;8734;59.272;17.780;2023-11-21T00:01:29;0.20;99.90
17236;DHT22;8734;59.272;17.780;2023-11-21T00:03:59;0.10;99.90
17236;DHT22;8734;59.272;17.780;2023-11-21T00:06:28;0.10;99.90
17236;DHT22;8734;59.272;17.780;2023-11-21T00:08:57;0.00;99.90
17236;DHT22;8734;59.272;17.780;2023-11-21T00:11:25;0.00;99.90
17236;DHT22;8734;59.272;17.780;2023-11-21T00:13:54;0.00;99.90
17236;DHT22;8734;59.272;17.780;2023-11-21T00:16:24;0.00;99.90
17236;DHT22;8734;59.272;17.780;2023-11-21T00:18:52;0.10;99.90
17236;DHT22;8734;59.272;17.780;2023-11-21T00:21:22;0.10;99.90
17236;DHT22;8734;59.272;17.780;2023-11-21T00:23:51;0.20;99.90
17236;DHT22;8734;59.272;17.780;2023-11-21T00:26:22;0.20;99.90
17236;DHT22;8734;59.272;17.780;2023-11-21T00:28:52;0.20;99.90
17236;DHT22;8734;59.272;17.780;2023-11-21T00:31:20;0.40;99.90
17236;DHT22;8734;59.272;17.780;2023-11-21T00:33:48;0.40;99.90
17236;DHT22;8734;59.272;17.780;2023-11-21T00:36:17;0.40;99.90
17236;DHT22;8734;59.272;17.780;2023-11-21T00:38:47;0.40;99.90
17236;DHT22;8734;59.272;17.780;2023-11-21T00:41:15;0.50;99.90
17236;DHT22;8734;59.272;17.780;2023-11-21T00:43:43;0.60;99.90
17236;DHT22;8734;59.272;17.780;2023-11-21T00:46:12;0.60;99.90
17236;DHT22;8734;59.272;17.780;2023-11-21T00:48:40;0.60;99.90
17236;DHT22;8734;59.272;17.780;2023-11-21T00:51:09;0.60;99.90
17236;DHT22;8734;59.272;17.780;2023-11-21T00:53:37;0.70;99.90
17236;DHT22;8734;59.272;17.780;2023-11-21T00:56:08;0.70;99.90
17236;DHT22;8734;59.272;17.780;2023-11-21T00:58:36;0.70;99.90
17236;DHT22;8734;59.272;17.780;2023-11-21T01:01:04;0.80;99.90
17236;DHT22;8734;59.272;17.780;2023-11-21T01:03:33;0.80;99.90
17236;DHT22;8734;59.272;17.780;2023-11-21T01:06:01;0.90;99.90
17236;DHT22;8734;59.272;17.780;2023-11-21T01:08:30;0.90;99.90
17236;DHT22;8734;59.272;17.780;2023-11-21T01:10:58;0.90;99.90
17236;DHT22;8734;59.272;17.780;2023-11-21T01:13:27;0.90;99.90
17236;DHT22;8734;59.272;17.780;2023-11-21T01:15:56;1.00;99.90
17236;DHT22;8734;59.272;17.780;2023-11-21T01:18:24;1.00;99.90
17236;DHT22;8734;59.272;17.780;2023-11-21T01:20:53;1.00;99.90
17236;DHT22;8734;59.272;17.780;2023-11-21T01:23:21;1.00;99.90
17236;DHT22;8734;59.272;17.780;2023-11-21T01:25:49;1.10;99.90
17236;DHT22;8734;59.272;17.780;2023-11-21T01:28:18;1.00;99.90
17236;DHT22;8734;59.272;17.780;2023-11-21T01:30:49;1.00;99.90
17236;DHT22;8734;59.272;17.780;2023-11-21T01:33:17;1.00;99.90
17236;DHT22;8734;59.272;17.780;2023-11-21T01:35:46;1.10;99.90
17236;DHT22;8734;59.272;17.780;2023-11-21T01:38:14;1.10;99.90
17236;DHT22;8734;59.272;17.780;2023-11-21T01:40:44;1.10;99.90
17236;DHT22;8734;59.272;17.780;2023-11-21T01:43:12;1.10;99.90
17236;DHT22;8734;59.272;17.780;2023-11-21T01:45:41;1.10;99.90
17236;DHT22;8734;59.272;17.780;2023-11-21T01:48:10;1.10;99.90
17236;DHT22;8734;59.272;17.780;2023-11-21T01:50:39;1.10;99.90
17236;DHT22;8734;59.272;17.780;2023-11-21T01:53:08;1.10;99.90
17236;DHT22;8734;59.272;17.780;2023-11-21T01:55:37;1.10;99.90
17236;DHT22;8734;59.272;17.780;2023-11-21T01:58:05;1.20;99.90
17236;DHT22;8734;59.272;17.780;2023-11-21T02:00:35;1.20;99.90
17236;DHT22;8734;59.272;17.780;2023-11-21T02:03:05;1.10;99.90
17236;DHT22;8734;59.272;17.780;2023-11-21T02:05:36;1.20;99.90
17236;DHT22;8734;59.272;17.780;2023-11-21T02:08:04;1.10;99.90
17236;DHT22;8734;59.272;17.780;2023-11-21T02:10:33;1.20;99.90
17236;DHT22;8734;59.272;17.780;2023-11-21T02:13:04;1.20;99.90
17236;DHT22;8734;59.272;17.780;2023-11-21T02:15:33;1.20;99.90
17236;DHT22;8734;59.272;17.780;2023-11-21T02:18:01;1.20;99.90
17236;DHT22;8734;59.272;17.780;2023-11-21T02:20:30;1.20;99.90
17236;DHT22;8734;59.272;17.780;2023-11-21T02:23:00;1.20;99.90
17236;DHT22;8734;59.272;17.780;2023-11-21T02:25:29;1.20;99.90
17236;DHT22;8734;59.272;17.780;2023-11-21T02:28:00;1.20;99.90
17236;DHT22;8734;59.272;17.780;2023-11-21T02:30:29;1.20;99.90
17236;DHT22;8734;59.272;17.780;2023-11-21T02:32:59;1.20;99.90
17236;DHT22;8734;59.272;17.780;2023-11-21T02:35:28;1.20;99.90
17236;DHT22;8734;59.272;17.780;2023-11-21T02:38:00;1.20;99.90
17236;DHT22;8734;59.272;17.780;2023-11-21T02:40:28;1.20;99.90
17236;DHT22;8734;59.272;17.780;2023-11-21T02:42:57;1.20;99.90
17236;DHT22;8734;59.272;17.780;2023-11-21T02:45:26;1.20;99.90
17236;DHT22;8734;59.272;17.780;2023-11-21T02:47:55;1.20;99.90
17236;DHT22;8734;59.272;17.780;2023-11-21T02:50:25;1.10;99.90
17236;DHT22;8734;59.272;17.780;2023-11-21T02:52:54;1.20;99.90
17236;DHT22;8734;59.272;17.780;2023-11-21T02:55:27;1.20;99.90
17236;DHT22;8734;59.272;17.780;2023-11-21T02:57:55;1.20;99.90
17236;DHT22;8734;59.272;17.780;2023-11-21T03:00:24;1.20;99.90
17236;DHT22;8734;59.272;17.780;2023-11-21T03:02:56;1.20;99.90
17236;DHT22;8734;59.272;17.780;2023-11-21T03:05:25;1.20;99.90
17236;DHT22;8734;59.272;17.780;2023-11-21T03:07:53;1.20;99.90
17236;DHT22;8734;59.272;17.780;2023-11-21T03:10:22;1.20;99.90
17236;DHT22;8734;59.272;17.780;2023-11-21T03:12:52;1.20;99.90
17236;DHT22;8734;59.272;17.780;2023-11-21T03:15:20;1.20;99.90
17236;DHT22;8734;59.272;17.780;2023-11-21T03:17:49;1.20;99.90
17236;DHT22;8734;59.272;17.780;2023-11-21T03:20:17;1.20;99.90
17236;DHT22;8734;59.272;17.780;2023-11-21T03:22:46;1.20;99.90
17236;DHT22;8734;59.272;17.780;2023-11-21T03:25:15;1.20;99.90
17236;DHT22;8734;59.272;17.780;2023-11-21T03:27:44;1.20;99.90
17236;DHT22;8734;59.272;17.780;2023-11-21T03:30:14;1.20;99.90
17236;DHT22;8734;59.272;17.780;2023-11-21T03:32:43;1.20;99.90
17236;DHT22;8734;59.272;17.780;2023-11-21T03:35:12;1.30;99.90
17236;DHT22;8734;59.272;17.780;2023-11-21T03:37:40;1.30;99.90
17236;DHT22;8734;59.272;17.780;2023-11-21T03:40:10;1.30;99.90
17236;DHT22;8734;59.272;17.780;2023-11-21T03:42:40;1.30;99.90
17236;DHT22;8734;59.272;17.780;2023-11-21T03:45:09;1.40;99.90
17236;DHT22;8734;59.272;17.780;2023-11-21T03:47:41;1.30;99.90
17236;DHT22;8734;59.272;17.780;2023-11-21T03:50:10;1.30;99.90
17236;DHT22;8734;59.272;17.780;2023-11-21T03:52:38;1.40;99.90
17236;DHT22;8734;59.272;17.780;2023-11-21T03:55:07;1.40;99.90
17236;DHT22;8734;59.272;17.780;2023-11-21T03:57:37;1.40;99.90
17236;DHT22;8734;59.272;17.780;2023-11-21T04:00:06;1.40;99.90
17236;DHT22;8734;59.272;17.780;2023-11-21T04:02:37;1.40;99.90
17236;DHT22;8734;59.272;17.780;2023-11-21T04:05:08;1.40;99.90
17236;DHT22;8734;59.272;17.780;2023-11-21T04:07:36;1.40;99.90
17236;DHT22;8734;59.272;17.780;2023-11-21T04:10:06;1.40;99.90
17236;DHT22;8734;59.272;17.780;2023-11-21T04:12:36;1.40;99.90
17236;DHT22;8734;59.272;17.780;2023-11-21T04:15:05;1.50;99.90
17236;DHT22;8734;59.272;17.780;2023-11-21T04:17:35;1.50;99.90
17236;DHT22;8734;59.272;17.780;2023-11-21T04:20:05;1.50;99.90
17236;DHT22;8734;59.272;17.780;2023-11-21T04:22:41;1.50;99.90
17236;DHT22;8734;59.272;17.780;2023-11-21T04:25:13;1.50;99.90
17236;DHT22;8734;59.272;17.780;2023-11-21T04:27:43;1.50;99.90
17236;DHT22;8734;59.272;17.780;2023-11-21T04:30:13;1.50;99.90
17236;DHT22;8734;59.272;17.780;2023-11-21T04:32:41;1.50;99.90
17236;DHT22;8734;59.272;17.780;2023-11-21T04:35:10;1.50;99.90
17236;DHT22;8734;59.272;17.780;2023-11-21T04:37:39;1.60;99.90
17236;DHT22;8734;59.272;17.780;2023-11-21T04:40:09;1.60;99.90
17236;DHT22;8734;59.272;17.780;2023-11-21T04:42:37;1.60;99.90
17236;DHT22;8734;59.272;17.780;2023-11-21T04:45:07;1.60;99.90
17236;DHT22;8734;59.272;17.780;2023-11-21T04:47:38;1.60;99.90
17236;DHT22;8734;59.272;17.780;2023-11-21T04:50:07;1.60;99.90
17236;DHT22;8734;59.272;17.780;2023-11-21T04:52:35;1.60;99.90
17236;DHT22;8734;59.272;17.780;2023-11-21T04:55:06;1.60;99.90
17236;DHT22;8734;59.272;17.780;2023-11-21T04:57:37;1.70;99.90
17236;DHT22;8734;59.272;17.780;2023-11-21T05:00:08;1.70;99.90
17236;DHT22;8734;59.272;17.780;2023-11-21T05:02:37;1.70;99.90
17236;DHT22;8734;59.272;17.780;2023-11-21T05:05:06;1.70;99.90
17236;DHT22;8734;59.272;17.780;2023-11-21T05:07:38;1.70;99.90
17236;DHT22;8734;59.272;17.780;2023-11-21T05:10:08;1.70;99.90
17236;DHT22;8734;59.272;17.780;2023-11-21T05:12:40;1.70;99.90
17236;DHT22;8734;59.272;17.780;2023-11-21T05:15:14;1.70;99.90
17236;DHT22;8734;59.272;17.780;2023-11-21T05:17:43;1.70;99.90
17236;DHT22;8734;59.272;17.780;2023-11-21T05:20:14;1.70;99.90
17236;DHT22;8734;59.272;17.780;2023-11-21T05:22:45;1.70;99.90
17236;DHT22;8734;59.272;17.780;2023-11-21T05:25:15;1.70;99.90
17236;DHT22;8734;59.272;17.780;2023-11-21T05:27:45;1.70;99.90
17236;DHT22;8734;59.272;17.780;2023-11-21T05:30:14;1.70;99.90
17236;DHT22;8734;59.272;17.780;2023-11-21T05:32:42;1.70;99.90
17236;DHT22;8734;59.272;17.780;2023-11-21T05:35:11;1.70;99.90
17236;DHT22;8734;59.272;17.780;2023-11-21T05:37:44;1.70;99.90
17236;DHT22;8734;59.272;17.780;2023-11-21T05:40:15;1.70;99.90
17236;DHT22;8734;59.272;17.780;2023-11-21T05:42:44;1.70;99.90
17236;DHT22;8734;59.272;17.780;2023-11-21T05:45:12;1.70;99.90
17236;DHT22;8734;59.272;17.780;2023-11-21T05:47:42;1.70;99.90
17236;DHT22;8734;59.272;17.780;2023-11-21T05:50:11;1.70;99.90
17236;DHT22;8734;59.272;17.780;2023-11-21T05:52:42;1.80;99.90
17236;DHT22;8734;59.272;17.780;2023-11-21T05:55:10;1.70;99.90
17236;DHT22;8734;59.272;17.780;2023-11-21T05:57:43;1.80;99.90
17236;DHT22;8734;59.272;17.780;2023-11-21T06:00:13;1.70;99.90
17236;DHT22;8734;59.272;17.780;2023-11-21T06:02:49;1.70;99.90
17236;DHT22;8734;59.272;17.780;2023-11-21T06:05:22;1.80;99.90
17236;DHT22;8734;59.272;17.780;2023-11-21T06:07:52;1.70;99.90
17236;DHT22;8734;59.272;17.780;2023-11-21T06:10:21;1.70;99.90
17236;DHT22;8734;59.272;17.780;2023-11-21T06:12:53;1.80;99.90
17236;DHT22;8734;59.272;17.780;2023-11-21T06:15:21;1.80;99.90
17236;DHT22;8734;59.272;17.780;2023-11-21T06:17:51;1.70;99.90
17236;DHT22;8734;59.272;17.780;2023-11-21T06:20:21;1.70;99.90
17236;DHT22;8734;59.272;17.780;2023-11-21T06:22:50;1.70;99.90
17236;DHT22;8734;59.272;17.780;2023-11-21T06:25:20;1.70;99.90
17236;DHT22;8734;59.272;17.780;2023-11-21T06:27:49;1.70;99.90
17236;DHT22;8734;59.272;17.780;2023-11-21T06:30:20;1.70;99.90
17236;DHT22;8734;59.272;17.780;2023-11-21T06:32:49;1.70;99.90
17236;DHT22;8734;59.272;17.780;2023-11-21T06:35:18;1.70;99.90
17236;DHT22;8734;59.272;17.780;2023-11-21T06:37:47;1.70;99.90
17236;DHT22;8734;59.272;17.780;2023-11-21T06:40:17;1.80;99.90
17236;DHT22;8734;59.272;17.780;2023-11-21T06:42:47;1.70;99.90
17236;DHT22;8734;59.272;17.780;2023-11-21T06:45:17;1.70;99.90
17236;DHT22;8734;59.272;17.780;2023-11-21T06:47:47;1.70;99.90
17236;DHT22;8734;59.272;17.780;2023-11-21T06:50:16;1.70;99.90
17236;DHT22;8734;59.272;17.780;2023-11-21T06:52:44;1.70;99.90
17236;DHT22;8734;59.272;17.780;2023-11-21T06:55:12;1.70;99.90
17236;DHT22;8734;59.272;17.780;2023-11-21T06:57:41;1.70;99.90
17236;DHT22;8734;59.272;17.780;2023-11-21T07:00:10;1.70;99.90
17236;DHT22;8734;59.272;17.780;2023-11-21T07:02:39;1.70;99.90
17236;DHT22;8734;59.272;17.780;2023-11-21T07:05:09;1.70;99.90
17236;DHT22;8734;59.272;17.780;2023-11-21T07:07:38;1.70;99.90
17236;DHT22;8734;59.272;17.780;2023-11-21T07:10:07;1.70;99.90
17236;DHT22;8734;59.272;17.780;2023-11-21T07:12:36;1.70;99.90
17236;DHT22;8734;59.272;17.780;2023-11-21T07:15:06;1.70;99.90
17236;DHT22;8734;59.272;17.780;2023-11-21T07:17:36;1.80;99.90
17236;DHT22;8734;59.272;17.780;2023-11-21T07:20:10;1.70;99.90
17236;DHT22;8734;59.272;17.780;2023-11-21T07:22:39;1.70;99.90
17236;DHT22;8734;59.272;17.780;2023-11-21T07:25:07;1.70;99.90
17236;DHT22;8734;59.272;17.780;2023-11-21T07:27:37;1.70;99.90
17236;DHT22;8734;59.272;17.780;2023-11-21T07:30:06;1.70;99.90
17236;DHT22;8734;59.272;17.780;2023-11-21T07:32:37;1.70;99.90
17236;DHT22;8734;59.272;17.780;2023-11-21T07:35:09;1.70;99.90
17236;DHT22;8734;59.272;17.780;2023-11-21T07:37:38;1.70;99.90
17236;DHT22;8734;59.272;17.780;2023-11-21T07:40:07;1.70;99.90
17236;DHT22;8734;59.272;17.780;2023-11-21T07:42:38;1.70;99.90
17236;DHT22;8734;59.272;17.780;2023-11-21T07:45:07;1.60;99.90
17236;DHT22;8734;59.272;17.780;2023-11-21T07:47:36;1.60;99.90
17236;DHT22;8734;59.272;17.780;2023-11-21T07:50:09;1.60;99.90
17236;DHT22;8734;59.272;17.780;2023-11-21T07:52:37;1.60;99.90
17236;DHT22;8734;59.272;17.780;2023-11-21T07:55:07;1.60;99.90
17236;DHT22;8734;59.272;17.780;2023-11-21T07:57:35;1.60;99.90
17236;DHT22;8734;59.272;17.780;2023-11-21T08:00:04;1.60;99.90
17236;DHT22;8734;59.272;17.780;2023-11-21T08:02:36;1.60;99.90
17236;DHT22;8734;59.272;17.780;2023-11-21T08:05:04;1.60;99.90
17236;DHT22;8734;59.272;17.780;2023-11-21T08:07:38;1.60;99.90
17236;DHT22;8734;59.272;17.780;2023-11-21T08:10:08;1.60;99.90
17236;DHT22;8734;59.272;17.780;2023-11-21T08:12:38;1.60;99.90
17236;DHT22;8734;59.272;17.780;2023-11-21T08:15:06;1.70;99.90
17236;DHT22;8734;59.272;17.780;2023-11-21T08:17:36;1.70;99.90
17236;DHT22;8734;59.272;17.780;2023-11-21T08:20:05;1.70;99.90
17236;DHT22;8734;59.272;17.780;2023-11-21T08:22:35;1.70;99.90
17236;DHT22;8734;59.272;17.780;2023-11-21T08:25:06;1.60;99.90
17236;DHT22;8734;59.272;17.780;2023-11-21T08:27:34;1.70;99.90
17236;DHT22;8734;59.272;17.780;2023-11-21T08:30:03;1.70;99.90
17236;DHT22;8734;59.272;17.780;2023-11-21T08:32:31;1.70;99.90
17236;DHT22;8734;59.272;17.780;2023-11-21T08:35:00;1.70;99.90
17236;DHT22;8734;59.272;17.780;2023-11-21T08:37:28;1.70;99.90
17236;DHT22;8734;59.272;17.780;2023-11-21T08:39:58;1.70;99.90
17236;DHT22;8734;59.272;17.780;2023-11-21T08:42:28;1.70;99.90
17236;DHT22;8734;59.272;17.780;2023-11-21T08:44:57;1.70;99.90
17236;DHT22;8734;59.272;17.780;2023-11-21T08:47:26;1.70;99.90
17236;DHT22;8734;59.272;17.780;2023-11-21T08:49:54;1.70;99.90
17236;DHT22;8734;59.272;17.780;2023-11-21T08:52:22;1.70;99.90
17236;DHT22;8734;59.272;17.780;2023-11-21T08:54:50;1.70;99.90
17236;DHT22;8734;59.272;17.780;2023-11-21T08:57:23;1.80;99.90
17236;DHT22;8734;59.272;17.780;2023-11-21T08:59:52;1.80;99.90
17236;DHT22;8734;59.272;17.780;2023-11-21T09:02:23;1.80;99.90
17236;DHT22;8734;59.272;17.780;2023-11-21T09:04:51;1.80;99.90
17236;DHT22;8734;59.272;17.780;2023-11-21T09:07:19;1.80;99.90
17236;DHT22;8734;59.272;17.780;2023-11-21T09:09:48;1.80;99.90
17236;DHT22;8734;59.272;17.780;2023-11-21T09:12:16;1.80;99.90
17236;DHT22;8734;59.272;17.780;2023-11-21T09:14:46;1.80;99.90
17236;DHT22;8734;59.272;17.780;2023-11-21T09:17:16;1.80;99.90
17236;DHT22;8734;59.272;17.780;2023-11-21T09:19:44;1.80;99.90
17236;DHT22;8734;59.272;17.780;2023-11-21T09:22:17;1.80;99.90
17236;DHT22;8734;59.272;17.780;2023-11-21T09:24:45;1.70;99.90
17236;DHT22;8734;59.272;17.780;2023-11-21T09:27:15;1.70;99.90
17236;DHT22;8734;59.272;17.780;2023-11-21T09:29:44;1.70;99.90
17236;DHT22;8734;59.272;17.780;2023-11-21T09:32:12;1.60;99.90
17236;DHT22;8734;59.272;17.780;2023-11-21T09:34:47;1.60;99.90
17236;DHT22;8734;59.272;17.780;2023-11-21T09:37:16;1.50;99.90
17236;DHT22;8734;59.272;17.780;2023-11-21T09:39:44;1.60;99.90
17236;DHT22;8734;59.272;17.780;2023-11-21T09:42:23;1.60;99.90
17236;DHT22;8734;59.272;17.780;2023-11-21T09:44:56;1.60;99.90
17236;DHT22;8734;59.272;17.780;2023-11-21T09:47:28;1.60;99.90
17236;DHT22;8734;59.272;17.780;2023-11-21T09:50:01;1.60;99.90
17236;DHT22;8734;59.272;17.780;2023-11-21T09:52:32;1.70;99.90
17236;DHT22;8734;59.272;17.780;2023-11-21T09:55:02;1.70;99.90
17236;DHT22;8734;59.272;17.780;2023-11-21T09:57:33;1.70;99.90
17236;DHT22;8734;59.272;17.780;2023-11-21T10:00:02;1.80;99.90
17236;DHT22;8734;59.272;17.780;2023-11-21T10:02:34;1.80;99.90
17236;DHT22;8734;59.272;17.780;2023-11-21T10:05:06;1.80;99.90
17236;DHT22;8734;59.272;17.780;2023-11-21T10:07:37;1.90;99.90
17236;DHT22;8734;59.272;17.780;2023-11-21T10:10:08;1.90;99.90
17236;DHT22;8734;59.272;17.780;2023-11-21T10:12:37;1.90;99.90
17236;DHT22;8734;59.272;17.780;2023-11-21T10:15:08;2.00;99.90
17236;DHT22;8734;59.272;17.780;2023-11-21T10:17:39;2.00;99.90
17236;DHT22;8734;59.272;17.780;2023-11-21T10:20:14;2.00;99.90
17236;DHT22;8734;59.272;17.780;2023-11-21T10:22:43;2.00;99.90
17236;DHT22;8734;59.272;17.780;2023-11-21T10:25:11;2.00;99.90
17236;DHT22;8734;59.272;17.780;2023-11-21T10:27:41;2.00;99.90
17236;DHT22;8734;59.272;17.780;2023-11-21T10:30:10;2.00;99.90
17236;DHT22;8734;59.272;17.780;2023-11-21T10:32:39;2.10;99.90
17236;DHT22;8734;59.272;17.780;2023-11-21T10:35:08;2.10;99.90
17236;DHT22;8734;59.272;17.780;2023-11-21T10:37:39;2.10;99.90
17236;DHT22;8734;59.272;17.780;2023-11-21T10:40:09;2.10;99.90
17236;DHT22;8734;59.272;17.780;2023-11-21T10:42:39;2.10;99.90
17236;DHT22;8734;59.272;17.780;2023-11-21T10:45:09;2.10;99.90
17236;DHT22;8734;59.272;17.780;2023-11-21T10:47:41;2.10;99.90
17236;DHT22;8734;59.272;17.780;2023-11-21T10:50:09;2.10;99.90
17236;DHT22;8734;59.272;17.780;2023-11-21T10:52:40;2.10;99.90
17236;DHT22;8734;59.272;17.780;2023-11-21T10:55:17;2.10;99.90
17236;DHT22;8734;59.272;17.780;2023-11-21T10:57:49;2.10;99.90
17236;DHT22;8734;59.272;17.780;2023-11-21T11:00:19;2.10;99.90
17236;DHT22;8734;59.272;17.780;2023-11-21T11:02:50;2.00;99.90
17236;DHT22;8734;59.272;17.780;2023-11-21T11:05:21;2.00;99.90
17236;DHT22;8734;59.272;17.780;2023-11-21T11:07:55;2.00;99.90
17236;DHT22;8734;59.272;17.780;2023-11-21T11:10:27;2.00;99.90
17236;DHT22;8734;59.272;17.780;2023-11-21T11:12:56;2.00;99.90
17236;DHT22;8734;59.272;17.780;2023-11-21T11:15:26;2.00;99.90
17236;DHT22;8734;59.272;17.780;2023-11-21T11:17:55;2.00;99.90
17236;DHT22;8734;59.272;17.780;2023-11-21T11:20:29;2.00;99.90
17236;DHT22;8734;59.272;17.780;2023-11-21T11:23:13;2.00;99.90
17236;DHT22;8734;59.272;17.780;2023-11-21T11:25:57;2.00;99.90
17236;DHT22;8734;59.272;17.780;2023-11-21T11:28:38;2.10;99.90
17236;DHT22;8734;59.272;17.780;2023-11-21T11:31:16;2.00;99.90
17236;DHT22;8734;59.272;17.780;2023-11-21T11:33:53;2.00;99.90
17236;DHT22;8734;59.272;17.780;2023-11-21T11:36:26;2.00;99.90
17236;DHT22;8734;59.272;17.780;2023-11-21T11:38:57;2.00;99.90
17236;DHT22;8734;59.272;17.780;2023-11-21T11:41:26;2.00;99.90
17236;DHT22;8734;59.272;17.780;2023-11-21T11:43:56;2.00;99.90
17236;DHT22;8734;59.272;17.780;2023-11-21T11:46:40;2.00;99.90
17236;DHT22;8734;59.272;17.780;2023-11-21T11:49:09;2.00;99.90
17236;DHT22;8734;59.272;17.780;2023-11-21T11:51:38;2.00;99.90
17236;DHT22;8734;59.272;17.780;2023-11-21T11:54:07;2.00;99.90
17236;DHT22;8734;59.272;17.780;2023-11-21T11:56:36;2.00;99.90
17236;DHT22;8734;59.272;17.780;2023-11-21T11:59:06;2.00;99.90
17236;DHT22;8734;59.272;17.780;2023-11-21T12:01:36;2.00;99.90
17236;DHT22;8734;59.272;17.780;2023-11-21T12:04:23;2.00;99.90
17236;DHT22;8734;59.272;17.780;2023-11-21T12:07:00;2.00;99.90
17236;DHT22;8734;59.272;17.780;2023-11-21T12:09:31;2.00;99.90
17236;DHT22;8734;59.272;17.780;2023-11-21T12:12:01;2.00;99.90
17236;DHT22;8734;59.272;17.780;2023-11-21T12:14:30;2.00;99.90
17236;DHT22;8734;59.272;17.780;2023-11-21T12:16:59;2.00;99.90
17236;DHT22;8734;59.272;17.780;2023-11-21T12:19:29;2.00;99.90
17236;DHT22;8734;59.272;17.780;2023-11-21T12:21:57;2.00;99.90
17236;DHT22;8734;59.272;17.780;2023-11-21T12:24:27;2.00;99.90
17236;DHT22;8734;59.272;17.780;2023-11-21T12:26:57;2.00;99.90
17236;DHT22;8734;59.272;17.780;2023-11-21T12:29:26;1.90;99.90
17236;DHT22;8734;59.272;17.780;2023-11-21T12:31:56;1.90;99.90
17236;DHT22;8734;59.272;17.780;2023-11-21T12:34:25;1.90;99.90
17236;DHT22;8734;59.272;17.780;2023-11-21T12:36:53;1.90;99.90
17236;DHT22;8734;59.272;17.780;2023-11-21T12:39:22;1.90;99.90
17236;DHT22;8734;59.272;17.780;2023-11-21T12:41:51;1.80;99.90
17236;DHT22;8734;59.272;17.780;2023-11-21T12:44:20;1.80;99.90
17236;DHT22;8734;59.272;17.780;2023-11-21T12:46:50;1.80;99.90
17236;DHT22;8734;59.272;17.780;2023-11-21T12:49:19;1.80;99.90
17236;DHT22;8734;59.272;17.780;2023-11-21T12:51:49;1.80;99.90
17236;DHT22;8734;59.272;17.780;2023-11-21T12:54:17;1.80;99.90
17236;DHT22;8734;59.272;17.780;2023-11-21T12:56:46;1.90;99.90
17236;DHT22;8734;59.272;17.780;2023-11-21T12:59:16;1.90;99.90
17236;DHT22;8734;59.272;17.780;2023-11-21T13:01:47;1.90;99.90
17236;DHT22;8734;59.272;17.780;2023-11-21T13:04:18;1.90;99.90
17236;DHT22;8734;59.272;17.780;2023-11-21T13:06:46;1.90;99.90
17236;DHT22;8734;59.272;17.780;2023-11-21T13:09:15;1.80;99.90
17236;DHT22;8734;59.272;17.780;2023-11-21T13:11:48;1.70;99.90
17236;DHT22;8734;59.272;17.780;2023-11-21T13:14:17;1.70;99.90
17236;DHT22;8734;59.272;17.780;2023-11-21T13:16:46;1.60;99.90
17236;DHT22;8734;59.272;17.780;2023-11-21T13:19:15;1.60;99.90
17236;DHT22;8734;59.272;17.780;2023-11-21T13:21:43;1.60;99.90
17236;DHT22;8734;59.272;17.780;2023-11-21T13:24:11;1.60;99.90
17236;DHT22;8734;59.272;17.780;2023-11-21T13:26:39;1.60;99.90
17236;DHT22;8734;59.272;17.780;2023-11-21T13:29:07;1.60;99.90
17236;DHT22;8734;59.272;17.780;2023-11-21T13:31:36;1.60;99.90
17236;DHT22;8734;59.272;17.780;2023-11-21T13:34:07;1.60;99.90
17236;DHT22;8734;59.272;17.780;2023-11-21T13:36:35;1.50;99.90
17236;DHT22;8734;59.272;17.780;2023-11-21T13:39:04;1.50;99.90
17236;DHT22;8734;59.272;17.780;2023-11-21T13:41:35;1.40;99.90
17236;DHT22;8734;59.272;17.780;2023-11-21T13:44:06;1.30;99.90
17236;DHT22;8734;59.272;17.780;2023-11-21T13:46:43;1.20;99.90
17236;DHT22;8734;59.272;17.780;2023-11-21T13:49:14;1.20;99.90
17236;DHT22;8734;59.272;17.780;2023-11-21T13:51:43;1.10;99.90
17236;DHT22;8734;59.272;17.780;2023-11-21T13:54:15;1.10;99.90
17236;DHT22;8734;59.272;17.780;2023-11-21T13:56:43;1.00;99.90
17236;DHT22;8734;59.272;17.780;2023-11-21T13:59:14;0.90;99.90
17236;DHT22;8734;59.272;17.780;2023-11-21T14:01:48;0.90;99.90
17236;DHT22;8734;59.272;17.780;2023-11-21T14:04:26;0.80;99.90
17236;DHT22;8734;59.272;17.780;2023-11-21T14:07:16;0.80;99.90
17236;DHT22;8734;59.272;17.780;2023-11-21T14:09:59;0.80;99.90
17236;DHT22;8734;59.272;17.780;2023-11-21T14:12:28;0.70;99.90
17236;DHT22;8734;59.272;17.780;2023-11-21T14:15:04;0.70;99.90
17236;DHT22;8734;59.272;17.780;2023-11-21T14:17:36;0.60;99.90
17236;DHT22;8734;59.272;17.780;2023-11-21T14:20:09;0.60;99.90
17236;DHT22;8734;59.272;17.780;2023-11-21T14:22:43;0.50;99.90
17236;DHT22;8734;59.272;17.780;2023-11-21T14:25:12;0.50;99.90
17236;DHT22;8734;59.272;17.780;2023-11-21T14:27:41;0.30;99.90
17236;DHT22;8734;59.272;17.780;2023-11-21T14:30:10;0.30;99.90
17236;DHT22;8734;59.272;17.780;2023-11-21T14:32:45;0.30;99.90
17236;DHT22;8734;59.272;17.780;2023-11-21T14:35:15;0.30;99.90
17236;DHT22;8734;59.272;17.780;2023-11-21T14:37:44;0.30;99.90
17236;DHT22;8734;59.272;17.780;2023-11-21T14:40:13;0.20;99.90
17236;DHT22;8734;59.272;17.780;2023-11-21T14:42:43;0.20;99.90
17236;DHT22;8734;59.272;17.780;2023-11-21T14:45:14;0.20;99.90
17236;DHT22;8734;59.272;17.780;2023-11-21T14:47:46;0.20;99.90
17236;DHT22;8734;59.272;17.780;2023-11-21T14:50:25;0.20;99.90
17236;DHT22;8734;59.272;17.780;2023-11-21T14:53:36;0.20;99.90
17236;DHT22;8734;59.272;17.780;2023-11-21T14:56:10;0.10;99.90
17236;DHT22;8734;59.272;17.780;2023-11-21T14:58:45;0.00;99.90
17236;DHT22;8734;59.272;17.780;2023-11-21T15:01:12;-0.10;99.90
17236;DHT22;8734;59.272;17.780;2023-11-21T15:03:40;-0.20;99.90
17236;DHT22;8734;59.272;17.780;2023-11-21T15:06:15;-0.30;99.90
17236;DHT22;8734;59.272;17.780;2023-11-21T15:08:54;-0.30;99.90
17236;DHT22;8734;59.272;17.780;2023-11-21T15:11:35;-0.40;99.90
17236;DHT22;8734;59.272;17.780;2023-11-21T15:14:05;-0.50;99.90
17236;DHT22;8734;59.272;17.780;2023-11-21T15:16:36;-0.60;99.90
17236;DHT22;8734;59.272;17.780;2023-11-21T15:19:08;-0.70;99.90
17236;DHT22;8734;59.272;17.780;2023-11-21T15:21:40;-0.80;99.90
17236;DHT22;8734;59.272;17.780;2023-11-21T15:24:09;-0.90;99.90
17236;DHT22;8734;59.272;17.780;2023-11-21T15:26:37;-0.90;99.90
17236;DHT22;8734;59.272;17.780;2023-11-21T15:29:06;-1.00;99.90
17236;DHT22;8734;59.272;17.780;2023-11-21T15:31:34;-1.00;99.90
17236;DHT22;8734;59.272;17.780;2023-11-21T15:34:04;-1.00;99.90
17236;DHT22;8734;59.272;17.780;2023-11-21T15:36:32;-1.00;99.90
17236;DHT22;8734;59.272;17.780;2023-11-21T15:39:02;-1.00;99.90
17236;DHT22;8734;59.272;17.780;2023-11-21T15:41:31;-1.10;99.90
17236;DHT22;8734;59.272;17.780;2023-11-21T15:43:59;-1.10;99.90
17236;DHT22;8734;59.272;17.780;2023-11-21T15:46:27;-1.10;99.90
17236;DHT22;8734;59.272;17.780;2023-11-21T15:48:56;-1.10;99.90
17236;DHT22;8734;59.272;17.780;2023-11-21T15:51:24;-1.10;99.90
17236;DHT22;8734;59.272;17.780;2023-11-21T15:53:52;-1.20;99.90
17236;DHT22;8734;59.272;17.780;2023-11-21T15:56:22;-1.10;99.90
17236;DHT22;8734;59.272;17.780;2023-11-21T15:58:50;-1.10;99.90
17236;DHT22;8734;59.272;17.780;2023-11-21T16:01:19;-1.10;99.90
17236;DHT22;8734;59.272;17.780;2023-11-21T16:03:48;-1.00;99.90